Huvudsida
METAR-TAF:

METAR-TAF

Flygplatser :

Piacenza, Italien

latitud: 44-55N, longitud: 009-44E, höjd: 134 m

Aktuellt väderrapport

Denna rapport gjordes för 1 timme och 52 minuter sedan, klockan 17:55 UTC
Vind 1 kt från syd
Temperatur 8°C
Fuktighet 25%
Tryck 1017 hPa
Sikt 10 km eller mer
Inga moln under 1 500 m eller inga cumulonimbus

METAR: LIMS 281755Z 19001KT CAVOK 08/M11 Q1017 RMK FEW FEW200 VIS MIN 9999 WIND THR30 22002KT BLU

Tid: 20:47 (19:47 UTC)


TAF: saknas

Aktuella väderrapporter och prognoser från 4000 flygplatser (METAR- och TAF-rapporter).

De tillgängliga stationerna syns som gula och röda prickar på kartan.

För musen över prickarna för att se namnen på stationerna.

Klicka sedan för att få väderrapporter och prognoser.

För att ändra kartan: Klicka på de gröna knapparna med ett svart kors på för att zooma in; den gröna knappen med ett streck på för att zooma ut; eller på de gröna pilarna för angränsande kartor.


METAR-TAF: